Terminal Aerodrome Forecast
Issued by NWS Sterling, VA

Home | Current Version | Previous Version | Text Only | Print | Product List | Glossary On
Versions: 1 2 3 4 5 6 7 8 9 10 11 12 13 14 15 16 17 18 19 20 21 22 23 24
094
FTUS41 KLWX 262335
TAFBWI
TAF
KBWI 262335Z 2700/2806 20005KT P6SM BKN080
     FM270400 25004KT P6SM SCT080
     FM270600 31004KT P6SM SCT080
     FM271200 VRB03KT P6SM BKN140
     FM271500 28010G17KT P6SM BKN080
     FM272300 28007KT P6SM SCT070=

USA.gov is the U.S. government's official web portal to all federal, state and local government web resources and services.